sensor_id;sensor_type;location;lat;lon;timestamp;P1;durP1;ratioP1;P2;durP2;ratioP2
20589;SDS011;10453;50.810;12.540;2024-01-11T00:00:51;123.30;;;45.10;;
20589;SDS011;10453;50.810;12.540;2024-01-11T00:05:09;112.95;;;43.92;;
20589;SDS011;10453;50.810;12.540;2024-01-11T00:09:27;127.40;;;45.63;;
20589;SDS011;10453;50.810;12.540;2024-01-11T00:13:45;121.70;;;46.85;;
20589;SDS011;10453;50.810;12.540;2024-01-11T00:18:03;121.20;;;46.05;;
20589;SDS011;10453;50.810;12.540;2024-01-11T00:22:21;119.53;;;47.10;;
20589;SDS011;10453;50.810;12.540;2024-01-11T00:26:39;117.00;;;47.72;;
20589;SDS011;10453;50.810;12.540;2024-01-11T00:30:59;117.03;;;43.38;;
20589;SDS011;10453;50.810;12.540;2024-01-11T00:35:19;129.20;;;47.08;;
20589;SDS011;10453;50.810;12.540;2024-01-11T00:39:38;125.03;;;46.83;;
20589;SDS011;10453;50.810;12.540;2024-01-11T00:43:57;112.97;;;43.10;;
20589;SDS011;10453;50.810;12.540;2024-01-11T00:48:15;115.13;;;44.65;;
20589;SDS011;10453;50.810;12.540;2024-01-11T00:52:33;125.15;;;44.80;;
20589;SDS011;10453;50.810;12.540;2024-01-11T00:56:51;121.05;;;44.42;;
20589;SDS011;10453;50.810;12.540;2024-01-11T01:01:12;116.35;;;45.00;;
20589;SDS011;10453;50.810;12.540;2024-01-11T01:05:30;121.50;;;44.65;;
20589;SDS011;10453;50.810;12.540;2024-01-11T01:09:48;117.28;;;45.47;;
20589;SDS011;10453;50.810;12.540;2024-01-11T01:14:06;125.30;;;45.50;;
20589;SDS011;10453;50.810;12.540;2024-01-11T01:18:27;114.15;;;46.22;;
20589;SDS011;10453;50.810;12.540;2024-01-11T01:22:45;118.90;;;45.70;;
20589;SDS011;10453;50.810;12.540;2024-01-11T01:27:04;125.55;;;46.67;;
20589;SDS011;10453;50.810;12.540;2024-01-11T01:31:22;110.90;;;44.20;;
20589;SDS011;10453;50.810;12.540;2024-01-11T01:35:47;123.82;;;47.30;;
20589;SDS011;10453;50.810;12.540;2024-01-11T01:40:06;125.00;;;45.40;;
20589;SDS011;10453;50.810;12.540;2024-01-11T01:44:24;130.05;;;47.72;;
20589;SDS011;10453;50.810;12.540;2024-01-11T01:48:43;126.75;;;47.05;;
20589;SDS011;10453;50.810;12.540;2024-01-11T01:53:01;127.90;;;47.20;;
20589;SDS011;10453;50.810;12.540;2024-01-11T01:57:20;118.10;;;47.42;;
20589;SDS011;10453;50.810;12.540;2024-01-11T02:01:38;127.25;;;46.63;;
20589;SDS011;10453;50.810;12.540;2024-01-11T02:05:57;127.07;;;46.63;;
20589;SDS011;10453;50.810;12.540;2024-01-11T02:10:15;116.00;;;42.95;;
20589;SDS011;10453;50.810;12.540;2024-01-11T02:14:35;116.70;;;44.20;;
20589;SDS011;10453;50.810;12.540;2024-01-11T02:18:55;115.53;;;45.08;;
20589;SDS011;10453;50.810;12.540;2024-01-11T02:23:17;116.63;;;42.58;;
20589;SDS011;10453;50.810;12.540;2024-01-11T02:27:47;128.32;;;46.95;;
20589;SDS011;10453;50.810;12.540;2024-01-11T02:32:06;121.28;;;48.78;;
20589;SDS011;10453;50.810;12.540;2024-01-11T02:36:25;121.68;;;45.10;;
20589;SDS011;10453;50.810;12.540;2024-01-11T02:40:43;116.97;;;44.60;;
20589;SDS011;10453;50.810;12.540;2024-01-11T02:45:03;115.80;;;44.58;;
20589;SDS011;10453;50.810;12.540;2024-01-11T02:49:22;118.18;;;44.03;;
20589;SDS011;10453;50.810;12.540;2024-01-11T02:53:40;128.27;;;46.60;;
20589;SDS011;10453;50.810;12.540;2024-01-11T02:57:58;118.47;;;45.60;;
20589;SDS011;10453;50.810;12.540;2024-01-11T03:02:16;122.53;;;44.95;;
20589;SDS011;10453;50.810;12.540;2024-01-11T03:06:35;117.32;;;44.45;;
20589;SDS011;10453;50.810;12.540;2024-01-11T03:10:53;123.72;;;46.55;;
20589;SDS011;10453;50.810;12.540;2024-01-11T03:15:10;110.57;;;45.88;;
20589;SDS011;10453;50.810;12.540;2024-01-11T03:19:29;123.50;;;47.45;;
20589;SDS011;10453;50.810;12.540;2024-01-11T03:23:47;121.25;;;45.80;;
20589;SDS011;10453;50.810;12.540;2024-01-11T03:28:04;122.57;;;46.88;;
20589;SDS011;10453;50.810;12.540;2024-01-11T03:32:25;136.38;;;46.40;;
20589;SDS011;10453;50.810;12.540;2024-01-11T03:36:43;119.32;;;45.10;;
20589;SDS011;10453;50.810;12.540;2024-01-11T03:41:01;116.40;;;44.55;;
20589;SDS011;10453;50.810;12.540;2024-01-11T03:45:19;135.50;;;46.70;;
20589;SDS011;10453;50.810;12.540;2024-01-11T03:49:38;134.57;;;47.55;;
20589;SDS011;10453;50.810;12.540;2024-01-11T03:53:57;115.65;;;43.72;;
20589;SDS011;10453;50.810;12.540;2024-01-11T03:58:14;117.00;;;44.00;;
20589;SDS011;10453;50.810;12.540;2024-01-11T04:02:32;114.47;;;44.90;;
20589;SDS011;10453;50.810;12.540;2024-01-11T04:06:51;106.03;;;43.15;;
20589;SDS011;10453;50.810;12.540;2024-01-11T04:11:09;122.60;;;45.10;;
20589;SDS011;10453;50.810;12.540;2024-01-11T04:15:27;111.90;;;43.05;;
20589;SDS011;10453;50.810;12.540;2024-01-11T04:19:44;107.03;;;41.88;;
20589;SDS011;10453;50.810;12.540;2024-01-11T04:24:03;120.30;;;45.20;;
20589;SDS011;10453;50.810;12.540;2024-01-11T04:28:20;120.47;;;44.55;;
20589;SDS011;10453;50.810;12.540;2024-01-11T04:32:38;121.03;;;46.90;;
20589;SDS011;10453;50.810;12.540;2024-01-11T04:36:57;122.78;;;48.45;;
20589;SDS011;10453;50.810;12.540;2024-01-11T04:41:14;121.93;;;46.17;;
20589;SDS011;10453;50.810;12.540;2024-01-11T04:45:33;119.45;;;45.20;;
20589;SDS011;10453;50.810;12.540;2024-01-11T04:49:53;124.88;;;46.75;;
20589;SDS011;10453;50.810;12.540;2024-01-11T04:54:14;131.48;;;45.65;;
20589;SDS011;10453;50.810;12.540;2024-01-11T04:58:31;143.18;;;51.85;;
20589;SDS011;10453;50.810;12.540;2024-01-11T05:02:50;125.70;;;46.50;;
20589;SDS011;10453;50.810;12.540;2024-01-11T05:07:08;135.40;;;48.58;;
20589;SDS011;10453;50.810;12.540;2024-01-11T05:11:26;118.15;;;46.15;;
20589;SDS011;10453;50.810;12.540;2024-01-11T05:15:44;119.47;;;46.75;;
20589;SDS011;10453;50.810;12.540;2024-01-11T05:20:02;121.25;;;45.92;;
20589;SDS011;10453;50.810;12.540;2024-01-11T05:24:20;122.03;;;45.75;;
20589;SDS011;10453;50.810;12.540;2024-01-11T05:28:39;129.32;;;47.80;;
20589;SDS011;10453;50.810;12.540;2024-01-11T05:32:57;132.25;;;46.28;;
20589;SDS011;10453;50.810;12.540;2024-01-11T05:37:15;127.15;;;47.45;;
20589;SDS011;10453;50.810;12.540;2024-01-11T05:41:33;128.25;;;47.33;;
20589;SDS011;10453;50.810;12.540;2024-01-11T05:45:54;127.72;;;47.63;;
20589;SDS011;10453;50.810;12.540;2024-01-11T05:50:13;125.78;;;48.75;;
20589;SDS011;10453;50.810;12.540;2024-01-11T05:54:38;124.50;;;45.97;;
20589;SDS011;10453;50.810;12.540;2024-01-11T05:58:55;123.68;;;47.28;;
20589;SDS011;10453;50.810;12.540;2024-01-11T06:03:14;121.68;;;46.80;;
20589;SDS011;10453;50.810;12.540;2024-01-11T06:07:34;127.22;;;47.78;;
20589;SDS011;10453;50.810;12.540;2024-01-11T06:11:53;140.20;;;51.58;;
20589;SDS011;10453;50.810;12.540;2024-01-11T06:16:12;148.68;;;52.45;;
20589;SDS011;10453;50.810;12.540;2024-01-11T06:20:31;121.00;;;47.17;;
20589;SDS011;10453;50.810;12.540;2024-01-11T06:24:49;118.85;;;46.33;;
20589;SDS011;10453;50.810;12.540;2024-01-11T06:29:08;128.57;;;48.60;;
20589;SDS011;10453;50.810;12.540;2024-01-11T06:33:25;119.82;;;48.20;;
20589;SDS011;10453;50.810;12.540;2024-01-11T06:37:44;128.80;;;49.83;;
20589;SDS011;10453;50.810;12.540;2024-01-11T06:42:02;133.18;;;49.42;;
20589;SDS011;10453;50.810;12.540;2024-01-11T06:46:25;129.57;;;48.13;;
20589;SDS011;10453;50.810;12.540;2024-01-11T06:50:45;148.38;;;52.60;;
20589;SDS011;10453;50.810;12.540;2024-01-11T06:55:04;141.70;;;52.72;;
20589;SDS011;10453;50.810;12.540;2024-01-11T06:59:22;130.07;;;51.00;;
20589;SDS011;10453;50.810;12.540;2024-01-11T07:03:44;140.57;;;52.05;;
20589;SDS011;10453;50.810;12.540;2024-01-11T07:08:04;129.50;;;50.85;;
20589;SDS011;10453;50.810;12.540;2024-01-11T07:12:22;126.00;;;49.42;;
20589;SDS011;10453;50.810;12.540;2024-01-11T07:16:40;129.30;;;49.95;;
20589;SDS011;10453;50.810;12.540;2024-01-11T07:20:58;123.30;;;48.40;;
20589;SDS011;10453;50.810;12.540;2024-01-11T07:25:16;122.13;;;50.03;;
20589;SDS011;10453;50.810;12.540;2024-01-11T07:29:34;132.50;;;48.58;;
20589;SDS011;10453;50.810;12.540;2024-01-11T07:33:52;137.63;;;51.00;;
20589;SDS011;10453;50.810;12.540;2024-01-11T07:38:10;135.27;;;50.40;;
20589;SDS011;10453;50.810;12.540;2024-01-11T07:42:28;138.82;;;51.70;;
20589;SDS011;10453;50.810;12.540;2024-01-11T07:46:46;139.95;;;56.38;;
20589;SDS011;10453;50.810;12.540;2024-01-11T07:51:10;130.25;;;52.85;;
20589;SDS011;10453;50.810;12.540;2024-01-11T07:55:28;133.20;;;50.65;;
20589;SDS011;10453;50.810;12.540;2024-01-11T07:59:47;133.48;;;52.55;;
20589;SDS011;10453;50.810;12.540;2024-01-11T08:04:05;136.63;;;50.72;;
20589;SDS011;10453;50.810;12.540;2024-01-11T08:08:23;136.15;;;51.83;;
20589;SDS011;10453;50.810;12.540;2024-01-11T08:12:41;135.73;;;51.15;;
20589;SDS011;10453;50.810;12.540;2024-01-11T08:16:58;144.50;;;54.30;;
20589;SDS011;10453;50.810;12.540;2024-01-11T08:21:16;138.77;;;53.38;;
20589;SDS011;10453;50.810;12.540;2024-01-11T08:25:34;138.38;;;52.67;;
20589;SDS011;10453;50.810;12.540;2024-01-11T08:29:52;144.40;;;53.45;;
20589;SDS011;10453;50.810;12.540;2024-01-11T08:34:10;137.18;;;53.40;;
20589;SDS011;10453;50.810;12.540;2024-01-11T08:38:28;133.18;;;52.08;;
20589;SDS011;10453;50.810;12.540;2024-01-11T08:42:48;140.38;;;53.78;;
20589;SDS011;10453;50.810;12.540;2024-01-11T08:47:06;134.60;;;53.63;;
20589;SDS011;10453;50.810;12.540;2024-01-11T08:51:24;146.10;;;55.72;;
20589;SDS011;10453;50.810;12.540;2024-01-11T08:55:41;140.90;;;55.83;;
20589;SDS011;10453;50.810;12.540;2024-01-11T09:00:03;144.38;;;55.15;;
20589;SDS011;10453;50.810;12.540;2024-01-11T09:04:26;143.02;;;54.45;;
20589;SDS011;10453;50.810;12.540;2024-01-11T09:08:49;139.73;;;56.03;;
20589;SDS011;10453;50.810;12.540;2024-01-11T09:13:14;184.25;;;67.90;;
20589;SDS011;10453;50.810;12.540;2024-01-11T09:17:34;153.50;;;57.72;;
20589;SDS011;10453;50.810;12.540;2024-01-11T09:21:54;138.10;;;55.58;;
20589;SDS011;10453;50.810;12.540;2024-01-11T09:26:12;135.63;;;55.45;;
20589;SDS011;10453;50.810;12.540;2024-01-11T09:30:30;146.77;;;58.65;;
20589;SDS011;10453;50.810;12.540;2024-01-11T09:34:49;138.93;;;55.55;;
20589;SDS011;10453;50.810;12.540;2024-01-11T09:39:08;137.10;;;54.90;;
20589;SDS011;10453;50.810;12.540;2024-01-11T09:43:26;151.45;;;58.97;;
20589;SDS011;10453;50.810;12.540;2024-01-11T09:47:44;129.02;;;55.53;;
20589;SDS011;10453;50.810;12.540;2024-01-11T09:52:04;128.02;;;55.25;;
20589;SDS011;10453;50.810;12.540;2024-01-11T09:56:22;141.43;;;57.10;;
20589;SDS011;10453;50.810;12.540;2024-01-11T10:00:41;134.52;;;54.17;;
20589;SDS011;10453;50.810;12.540;2024-01-11T10:04:59;137.52;;;56.72;;
20589;SDS011;10453;50.810;12.540;2024-01-11T10:09:18;136.10;;;58.05;;
20589;SDS011;10453;50.810;12.540;2024-01-11T10:13:36;142.65;;;58.58;;
20589;SDS011;10453;50.810;12.540;2024-01-11T10:17:55;140.82;;;57.92;;
20589;SDS011;10453;50.810;12.540;2024-01-11T10:22:13;128.93;;;54.92;;
20589;SDS011;10453;50.810;12.540;2024-01-11T10:26:34;144.57;;;58.90;;
20589;SDS011;10453;50.810;12.540;2024-01-11T10:30:53;142.27;;;60.08;;
20589;SDS011;10453;50.810;12.540;2024-01-11T10:35:12;145.52;;;58.60;;
20589;SDS011;10453;50.810;12.540;2024-01-11T10:39:31;142.05;;;58.95;;
20589;SDS011;10453;50.810;12.540;2024-01-11T10:43:52;134.52;;;59.83;;
20589;SDS011;10453;50.810;12.540;2024-01-11T10:48:15;134.88;;;57.75;;
20589;SDS011;10453;50.810;12.540;2024-01-11T10:52:36;134.10;;;58.42;;
20589;SDS011;10453;50.810;12.540;2024-01-11T10:57:05;138.60;;;59.35;;
20589;SDS011;10453;50.810;12.540;2024-01-11T11:01:25;140.75;;;58.40;;
20589;SDS011;10453;50.810;12.540;2024-01-11T11:05:44;145.32;;;59.22;;
20589;SDS011;10453;50.810;12.540;2024-01-11T11:10:07;135.90;;;58.30;;
20589;SDS011;10453;50.810;12.540;2024-01-11T11:14:29;139.38;;;58.35;;
20589;SDS011;10453;50.810;12.540;2024-01-11T11:18:52;132.73;;;59.22;;
20589;SDS011;10453;50.810;12.540;2024-01-11T11:23:14;132.43;;;60.80;;
20589;SDS011;10453;50.810;12.540;2024-01-11T11:27:37;133.65;;;58.67;;
20589;SDS011;10453;50.810;12.540;2024-01-11T11:31:55;139.95;;;59.60;;
20589;SDS011;10453;50.810;12.540;2024-01-11T11:36:15;151.02;;;64.80;;
20589;SDS011;10453;50.810;12.540;2024-01-11T11:40:37;130.35;;;56.90;;
20589;SDS011;10453;50.810;12.540;2024-01-11T11:45:02;128.07;;;55.28;;
20589;SDS011;10453;50.810;12.540;2024-01-11T11:49:34;125.35;;;56.42;;
20589;SDS011;10453;50.810;12.540;2024-01-11T11:54:18;130.10;;;58.55;;
20589;SDS011;10453;50.810;12.540;2024-01-11T11:58:37;127.47;;;58.55;;
20589;SDS011;10453;50.810;12.540;2024-01-11T12:03:00;124.35;;;54.90;;
20589;SDS011;10453;50.810;12.540;2024-01-11T12:07:22;123.65;;;56.25;;
20589;SDS011;10453;50.810;12.540;2024-01-11T12:11:41;115.15;;;54.33;;
20589;SDS011;10453;50.810;12.540;2024-01-11T12:16:01;119.80;;;56.20;;
20589;SDS011;10453;50.810;12.540;2024-01-11T12:20:20;120.65;;;54.95;;
20589;SDS011;10453;50.810;12.540;2024-01-11T12:24:39;115.85;;;54.35;;
20589;SDS011;10453;50.810;12.540;2024-01-11T12:28:59;108.30;;;53.10;;
20589;SDS011;10453;50.810;12.540;2024-01-11T12:33:18;114.68;;;54.10;;
20589;SDS011;10453;50.810;12.540;2024-01-11T12:37:37;108.03;;;52.55;;
20589;SDS011;10453;50.810;12.540;2024-01-11T12:41:56;110.25;;;52.85;;
20589;SDS011;10453;50.810;12.540;2024-01-11T12:46:14;107.00;;;51.55;;
20589;SDS011;10453;50.810;12.540;2024-01-11T12:50:34;109.10;;;51.83;;
20589;SDS011;10453;50.810;12.540;2024-01-11T12:54:52;94.60;;;49.50;;
20589;SDS011;10453;50.810;12.540;2024-01-11T12:59:11;103.05;;;49.95;;
20589;SDS011;10453;50.810;12.540;2024-01-11T13:03:29;93.63;;;46.78;;
20589;SDS011;10453;50.810;12.540;2024-01-11T13:07:48;101.22;;;46.50;;
20589;SDS011;10453;50.810;12.540;2024-01-11T13:12:07;95.60;;;47.00;;
20589;SDS011;10453;50.810;12.540;2024-01-11T13:16:26;99.07;;;48.63;;
20589;SDS011;10453;50.810;12.540;2024-01-11T13:20:44;94.80;;;46.90;;
20589;SDS011;10453;50.810;12.540;2024-01-11T13:25:01;95.70;;;47.13;;
20589;SDS011;10453;50.810;12.540;2024-01-11T13:29:21;88.82;;;45.90;;
20589;SDS011;10453;50.810;12.540;2024-01-11T13:33:42;99.32;;;49.15;;
20589;SDS011;10453;50.810;12.540;2024-01-11T13:38:03;100.85;;;48.45;;
20589;SDS011;10453;50.810;12.540;2024-01-11T13:42:21;95.68;;;47.17;;
20589;SDS011;10453;50.810;12.540;2024-01-11T13:46:40;96.07;;;46.58;;
20589;SDS011;10453;50.810;12.540;2024-01-11T13:50:58;97.57;;;48.20;;
20589;SDS011;10453;50.810;12.540;2024-01-11T13:55:18;104.70;;;48.33;;
20589;SDS011;10453;50.810;12.540;2024-01-11T13:59:39;108.55;;;50.70;;
20589;SDS011;10453;50.810;12.540;2024-01-11T14:03:58;101.22;;;48.35;;
20589;SDS011;10453;50.810;12.540;2024-01-11T14:08:15;99.97;;;47.25;;
20589;SDS011;10453;50.810;12.540;2024-01-11T14:12:36;101.22;;;48.40;;
20589;SDS011;10453;50.810;12.540;2024-01-11T14:16:54;96.28;;;47.15;;
20589;SDS011;10453;50.810;12.540;2024-01-11T14:21:13;102.82;;;48.25;;
20589;SDS011;10453;50.810;12.540;2024-01-11T14:25:32;97.22;;;47.25;;
20589;SDS011;10453;50.810;12.540;2024-01-11T14:29:55;105.32;;;50.15;;
20589;SDS011;10453;50.810;12.540;2024-01-11T14:34:17;102.45;;;46.70;;
20589;SDS011;10453;50.810;12.540;2024-01-11T14:38:51;94.85;;;45.50;;
20589;SDS011;10453;50.810;12.540;2024-01-11T14:43:22;95.90;;;46.80;;
20589;SDS011;10453;50.810;12.540;2024-01-11T14:47:46;97.82;;;48.75;;
20589;SDS011;10453;50.810;12.540;2024-01-11T14:52:22;101.22;;;49.35;;
20589;SDS011;10453;50.810;12.540;2024-01-11T14:56:40;100.90;;;48.28;;
20589;SDS011;10453;50.810;12.540;2024-01-11T15:00:57;111.40;;;48.58;;
20589;SDS011;10453;50.810;12.540;2024-01-11T15:05:15;102.13;;;48.67;;
20589;SDS011;10453;50.810;12.540;2024-01-11T15:13:57;110.50;;;49.67;;
20589;SDS011;10453;50.810;12.540;2024-01-11T15:18:15;109.57;;;49.95;;
20589;SDS011;10453;50.810;12.540;2024-01-11T15:22:32;105.68;;;48.17;;
20589;SDS011;10453;50.810;12.540;2024-01-11T15:26:50;107.60;;;49.40;;
20589;SDS011;10453;50.810;12.540;2024-01-11T15:31:10;105.95;;;50.30;;
20589;SDS011;10453;50.810;12.540;2024-01-11T15:35:30;101.97;;;48.75;;
20589;SDS011;10453;50.810;12.540;2024-01-11T15:39:49;107.95;;;49.53;;
20589;SDS011;10453;50.810;12.540;2024-01-11T15:44:08;104.50;;;50.10;;
20589;SDS011;10453;50.810;12.540;2024-01-11T15:48:30;110.38;;;51.20;;
20589;SDS011;10453;50.810;12.540;2024-01-11T15:52:51;113.85;;;51.38;;
20589;SDS011;10453;50.810;12.540;2024-01-11T15:57:10;121.28;;;52.08;;
20589;SDS011;10453;50.810;12.540;2024-01-11T16:01:30;123.43;;;54.25;;
20589;SDS011;10453;50.810;12.540;2024-01-11T16:05:50;119.53;;;52.80;;
20589;SDS011;10453;50.810;12.540;2024-01-11T16:10:08;124.22;;;54.92;;
20589;SDS011;10453;50.810;12.540;2024-01-11T16:14:26;122.95;;;54.70;;
20589;SDS011;10453;50.810;12.540;2024-01-11T16:18:45;132.80;;;57.20;;
20589;SDS011;10453;50.810;12.540;2024-01-11T16:23:04;115.22;;;51.78;;
20589;SDS011;10453;50.810;12.540;2024-01-11T16:27:23;129.75;;;54.30;;
20589;SDS011;10453;50.810;12.540;2024-01-11T16:31:41;123.53;;;55.70;;
20589;SDS011;10453;50.810;12.540;2024-01-11T16:35:59;127.00;;;57.10;;
20589;SDS011;10453;50.810;12.540;2024-01-11T16:40:17;111.47;;;47.72;;
20589;SDS011;10453;50.810;12.540;2024-01-11T16:44:35;87.90;;;41.17;;
20589;SDS011;10453;50.810;12.540;2024-01-11T16:48:53;83.20;;;35.72;;
20589;SDS011;10453;50.810;12.540;2024-01-11T16:53:11;70.40;;;34.53;;
20589;SDS011;10453;50.810;12.540;2024-01-11T16:57:32;80.28;;;35.88;;
20589;SDS011;10453;50.810;12.540;2024-01-11T17:01:51;85.53;;;36.28;;
20589;SDS011;10453;50.810;12.540;2024-01-11T17:10:26;78.35;;;36.00;;
20589;SDS011;10453;50.810;12.540;2024-01-11T17:14:45;79.68;;;36.13;;
20589;SDS011;10453;50.810;12.540;2024-01-11T17:19:08;87.50;;;37.63;;
20589;SDS011;10453;50.810;12.540;2024-01-11T17:23:26;81.07;;;34.20;;
20589;SDS011;10453;50.810;12.540;2024-01-11T17:32:03;80.90;;;35.22;;
20589;SDS011;10453;50.810;12.540;2024-01-11T17:36:22;78.95;;;34.85;;
20589;SDS011;10453;50.810;12.540;2024-01-11T17:40:40;84.85;;;35.85;;
20589;SDS011;10453;50.810;12.540;2024-01-11T17:44:58;73.38;;;34.05;;
20589;SDS011;10453;50.810;12.540;2024-01-11T17:53:33;68.95;;;30.67;;
20589;SDS011;10453;50.810;12.540;2024-01-11T18:02:09;62.60;;;26.25;;
20589;SDS011;10453;50.810;12.540;2024-01-11T18:06:27;55.58;;;24.20;;
20589;SDS011;10453;50.810;12.540;2024-01-11T18:10:45;64.95;;;30.85;;
20589;SDS011;10453;50.810;12.540;2024-01-11T18:15:03;55.47;;;24.35;;
20589;SDS011;10453;50.810;12.540;2024-01-11T18:19:26;56.85;;;27.38;;
20589;SDS011;10453;50.810;12.540;2024-01-11T18:23:45;59.70;;;26.30;;
20589;SDS011;10453;50.810;12.540;2024-01-11T18:28:04;60.58;;;25.20;;
20589;SDS011;10453;50.810;12.540;2024-01-11T18:32:25;58.88;;;25.25;;
20589;SDS011;10453;50.810;12.540;2024-01-11T18:36:45;55.90;;;24.73;;
20589;SDS011;10453;50.810;12.540;2024-01-11T18:41:09;61.75;;;26.45;;
20589;SDS011;10453;50.810;12.540;2024-01-11T18:45:28;62.83;;;28.02;;
20589;SDS011;10453;50.810;12.540;2024-01-11T18:49:49;68.25;;;30.35;;
20589;SDS011;10453;50.810;12.540;2024-01-11T18:54:08;69.10;;;28.65;;
20589;SDS011;10453;50.810;12.540;2024-01-11T18:58:26;66.15;;;27.73;;
20589;SDS011;10453;50.810;12.540;2024-01-11T19:02:47;66.18;;;27.52;;
20589;SDS011;10453;50.810;12.540;2024-01-11T19:07:10;60.40;;;26.58;;
20589;SDS011;10453;50.810;12.540;2024-01-11T19:11:30;58.03;;;26.00;;
20589;SDS011;10453;50.810;12.540;2024-01-11T19:15:50;60.58;;;25.48;;
20589;SDS011;10453;50.810;12.540;2024-01-11T19:20:12;59.08;;;25.73;;
20589;SDS011;10453;50.810;12.540;2024-01-11T19:24:34;49.45;;;22.35;;
20589;SDS011;10453;50.810;12.540;2024-01-11T19:28:54;61.47;;;25.58;;
20589;SDS011;10453;50.810;12.540;2024-01-11T19:33:12;62.30;;;26.83;;
20589;SDS011;10453;50.810;12.540;2024-01-11T19:37:31;52.15;;;23.02;;
20589;SDS011;10453;50.810;12.540;2024-01-11T19:41:48;57.45;;;25.60;;
20589;SDS011;10453;50.810;12.540;2024-01-11T19:46:06;56.85;;;25.13;;
20589;SDS011;10453;50.810;12.540;2024-01-11T19:50:24;57.90;;;23.75;;
20589;SDS011;10453;50.810;12.540;2024-01-11T19:54:43;60.40;;;25.65;;
20589;SDS011;10453;50.810;12.540;2024-01-11T19:59:01;57.88;;;25.42;;
20589;SDS011;10453;50.810;12.540;2024-01-11T20:03:21;57.30;;;24.58;;
20589;SDS011;10453;50.810;12.540;2024-01-11T20:07:44;57.88;;;23.95;;
20589;SDS011;10453;50.810;12.540;2024-01-11T20:12:02;52.13;;;24.38;;
20589;SDS011;10453;50.810;12.540;2024-01-11T20:16:21;58.47;;;26.40;;
20589;SDS011;10453;50.810;12.540;2024-01-11T20:20:43;50.00;;;25.73;;
20589;SDS011;10453;50.810;12.540;2024-01-11T20:25:07;51.80;;;23.25;;
20589;SDS011;10453;50.810;12.540;2024-01-11T20:29:26;51.97;;;25.25;;
20589;SDS011;10453;50.810;12.540;2024-01-11T20:33:46;54.60;;;24.25;;
20589;SDS011;10453;50.810;12.540;2024-01-11T20:38:07;51.17;;;22.85;;
20589;SDS011;10453;50.810;12.540;2024-01-11T20:42:29;48.33;;;20.67;;
20589;SDS011;10453;50.810;12.540;2024-01-11T20:46:49;50.75;;;22.20;;
20589;SDS011;10453;50.810;12.540;2024-01-11T20:51:10;49.25;;;23.33;;
20589;SDS011;10453;50.810;12.540;2024-01-11T20:55:41;56.42;;;23.40;;
20589;SDS011;10453;50.810;12.540;2024-01-11T21:00:00;55.05;;;24.30;;
20589;SDS011;10453;50.810;12.540;2024-01-11T21:04:23;52.53;;;24.10;;
20589;SDS011;10453;50.810;12.540;2024-01-11T21:08:43;50.17;;;22.73;;
20589;SDS011;10453;50.810;12.540;2024-01-11T21:13:03;49.42;;;22.23;;
20589;SDS011;10453;50.810;12.540;2024-01-11T21:17:21;47.92;;;21.25;;
20589;SDS011;10453;50.810;12.540;2024-01-11T21:21:41;49.03;;;20.95;;
20589;SDS011;10453;50.810;12.540;2024-01-11T21:26:00;42.78;;;21.15;;
20589;SDS011;10453;50.810;12.540;2024-01-11T21:30:22;49.33;;;22.77;;
20589;SDS011;10453;50.810;12.540;2024-01-11T21:34:40;45.83;;;20.98;;
20589;SDS011;10453;50.810;12.540;2024-01-11T21:39:03;49.25;;;21.88;;
20589;SDS011;10453;50.810;12.540;2024-01-11T21:43:29;52.10;;;23.23;;
20589;SDS011;10453;50.810;12.540;2024-01-11T21:47:49;50.33;;;23.00;;
20589;SDS011;10453;50.810;12.540;2024-01-11T21:52:08;53.53;;;23.30;;
20589;SDS011;10453;50.810;12.540;2024-01-11T21:56:27;55.25;;;24.33;;
20589;SDS011;10453;50.810;12.540;2024-01-11T22:00:47;53.38;;;23.33;;
20589;SDS011;10453;50.810;12.540;2024-01-11T22:05:09;48.17;;;22.42;;
20589;SDS011;10453;50.810;12.540;2024-01-11T22:09:27;48.65;;;22.92;;
20589;SDS011;10453;50.810;12.540;2024-01-11T22:13:45;54.35;;;24.98;;
20589;SDS011;10453;50.810;12.540;2024-01-11T22:22:22;57.20;;;25.08;;
20589;SDS011;10453;50.810;12.540;2024-01-11T22:26:39;54.30;;;24.67;;
20589;SDS011;10453;50.810;12.540;2024-01-11T22:30:58;55.72;;;25.23;;
20589;SDS011;10453;50.810;12.540;2024-01-11T22:35:17;52.72;;;25.70;;
20589;SDS011;10453;50.810;12.540;2024-01-11T22:39:36;51.58;;;24.33;;
20589;SDS011;10453;50.810;12.540;2024-01-11T22:43:55;49.60;;;23.70;;
20589;SDS011;10453;50.810;12.540;2024-01-11T22:52:33;54.55;;;23.40;;
20589;SDS011;10453;50.810;12.540;2024-01-11T22:56:58;53.33;;;24.02;;
20589;SDS011;10453;50.810;12.540;2024-01-11T23:01:16;45.92;;;22.35;;
20589;SDS011;10453;50.810;12.540;2024-01-11T23:05:34;44.78;;;22.63;;
20589;SDS011;10453;50.810;12.540;2024-01-11T23:09:52;52.25;;;24.05;;
20589;SDS011;10453;50.810;12.540;2024-01-11T23:14:10;56.72;;;24.55;;
20589;SDS011;10453;50.810;12.540;2024-01-11T23:22:46;57.65;;;26.55;;
20589;SDS011;10453;50.810;12.540;2024-01-11T23:27:04;61.03;;;27.92;;
20589;SDS011;10453;50.810;12.540;2024-01-11T23:31:23;72.32;;;29.08;;
20589;SDS011;10453;50.810;12.540;2024-01-11T23:35:41;66.07;;;28.15;;
20589;SDS011;10453;50.810;12.540;2024-01-11T23:40:00;61.58;;;29.02;;
20589;SDS011;10453;50.810;12.540;2024-01-11T23:44:18;64.30;;;29.67;;
20589;SDS011;10453;50.810;12.540;2024-01-11T23:48:38;68.50;;;30.73;;
20589;SDS011;10453;50.810;12.540;2024-01-11T23:53:06;67.50;;;30.02;;
20589;SDS011;10453;50.810;12.540;2024-01-11T23:57:29;64.13;;;29.35;;
